createdAt,value
2023-02-02T00:02:57.244Z,2.08
2023-02-02T00:05:59.716Z,2.08
2023-02-02T00:09:03.154Z,0.45
2023-02-02T00:12:05.614Z,0.68
2023-02-02T00:15:08.551Z,0.90
2023-02-02T00:18:10.938Z,1.02
2023-02-02T00:21:13.342Z,1.45
2023-02-02T00:24:18.194Z,1.55
2023-02-02T00:27:20.731Z,0.88
2023-02-02T00:30:23.284Z,0.93
2023-02-02T00:33:25.747Z,0.70
2023-02-02T00:36:28.150Z,0.35
2023-02-02T00:39:30.712Z,0.88
2023-02-02T00:42:33.833Z,0.82
2023-02-02T00:45:38.126Z,1.97
2023-02-02T00:48:40.548Z,1.20
2023-02-02T00:51:43.057Z,1.45
2023-02-02T00:54:45.481Z,0.90
2023-02-02T00:57:48.063Z,1.02
2023-02-02T01:00:50.717Z,1.07
2023-02-02T01:03:53.458Z,0.35
2023-02-02T01:06:55.865Z,0.73
2023-02-02T01:09:58.372Z,1.48
2023-02-02T01:13:01.085Z,0.65
2023-02-02T01:16:04.621Z,1.23
2023-02-02T01:19:07.256Z,1.77
2023-02-02T01:22:09.785Z,3.97
2023-02-02T01:25:12.280Z,4.05
2023-02-02T01:28:14.692Z,3.65
2023-02-02T01:31:18.945Z,2.13
2023-02-02T01:34:21.549Z,2.22
2023-02-02T01:37:24.085Z,0.50
2023-02-02T01:40:26.575Z,1.85
2023-02-02T01:43:45.308Z,0.90
2023-02-02T01:46:47.725Z,0.33
2023-02-02T01:49:50.687Z,0.03
2023-02-02T01:52:55.539Z,0.55
2023-02-02T01:55:58.404Z,1.10
2023-02-02T01:59:01.348Z,0.68
2023-02-02T02:02:03.910Z,2.87
2023-02-02T02:05:08.340Z,2.15
2023-02-02T02:08:22.188Z,1.75
2023-02-02T02:11:25.207Z,1.08
2023-02-02T02:14:46.784Z,0.63
2023-02-02T02:18:28.687Z,1.23
2023-02-02T02:21:57.217Z,0.82
2023-02-02T02:25:36.769Z,0.98
2023-02-02T02:29:01.054Z,0.55
2023-02-02T02:32:27.353Z,0.40
2023-02-02T02:36:02.924Z,0.40
2023-02-02T02:39:14.963Z,2.00
2023-02-02T02:42:21.307Z,0.98
2023-02-02T02:45:27.145Z,2.30
2023-02-02T02:48:31.287Z,2.15
2023-02-02T02:51:53.199Z,3.10
2023-02-02T02:55:01.572Z,4.97
2023-02-02T02:58:10.026Z,3.92
2023-02-02T03:01:21.785Z,2.13
2023-02-02T03:04:51.363Z,1.23
2023-02-02T03:08:12.172Z,4.10
2023-02-02T03:11:15.442Z,1.90
2023-02-02T03:14:17.780Z,3.88
2023-02-02T03:17:20.225Z,1.35
2023-02-02T03:20:22.781Z,2.50
2023-02-02T03:23:25.689Z,3.37
2023-02-02T03:26:28.169Z,3.00
2023-02-02T03:29:30.754Z,1.30
2023-02-02T03:32:33.445Z,1.13
2023-02-02T03:35:35.810Z,1.13
2023-02-02T03:38:38.465Z,1.10
2023-02-02T03:41:40.898Z,1.40
2023-02-02T03:44:43.293Z,1.42
2023-02-02T03:47:45.736Z,1.90
2023-02-02T03:50:48.237Z,1.30
2023-02-02T03:53:50.649Z,1.30
2023-02-02T03:56:53.057Z,2.03
2023-02-02T03:59:55.700Z,1.80
2023-02-02T04:02:58.171Z,2.17
2023-02-02T04:06:00.946Z,1.55
2023-02-02T04:09:03.551Z,0.93
2023-02-02T04:12:06.135Z,1.60
2023-02-02T04:15:09.086Z,3.03
2023-02-02T04:18:11.690Z,6.97
2023-02-02T04:21:14.065Z,2.17
2023-02-02T04:24:16.527Z,1.67
2023-02-02T04:27:18.926Z,1.63
2023-02-02T04:30:22.079Z,1.27
2023-02-02T04:33:26.394Z,2.65
2023-02-02T04:36:28.909Z,2.70
2023-02-02T04:39:31.515Z,5.80
2023-02-02T04:42:35.091Z,9.13
2023-02-02T04:45:37.865Z,5.75
2023-02-02T04:48:43.678Z,3.63
2023-02-02T04:51:46.263Z,3.40
2023-02-02T04:54:48.708Z,3.07
2023-02-02T04:57:51.214Z,3.90
2023-02-02T05:00:53.770Z,5.00
2023-02-02T05:03:56.435Z,7.43
2023-02-02T05:06:58.836Z,8.10
2023-02-02T05:10:01.382Z,7.17
2023-02-02T05:13:03.769Z,12.98
2023-02-02T05:16:07.127Z,12.27
2023-02-02T05:19:11.218Z,13.88
2023-02-02T05:22:13.663Z,4.93
2023-02-02T05:25:16.289Z,3.90
2023-02-02T05:28:18.926Z,11.48
2023-02-02T05:31:21.767Z,19.00
2023-02-02T05:34:24.292Z,32.60
2023-02-02T05:37:26.858Z,25.58
2023-02-02T05:40:29.484Z,8.33
2023-02-02T05:43:32.696Z,6.82
2023-02-02T05:46:35.177Z,6.60
2023-02-02T05:49:37.605Z,7.68
2023-02-02T05:52:40.842Z,7.97
2023-02-02T05:55:43.327Z,5.70
2023-02-02T05:58:48.137Z,5.03
2023-02-02T06:01:50.599Z,10.07
2023-02-02T06:04:52.972Z,7.30
2023-02-02T06:07:55.421Z,12.68
2023-02-02T06:10:57.942Z,11.50
2023-02-02T06:14:00.538Z,10.25
2023-02-02T06:17:03.013Z,7.85
2023-02-02T06:20:05.971Z,13.32
2023-02-02T06:23:08.526Z,13.23
2023-02-02T06:26:11.804Z,9.90
2023-02-02T06:29:14.504Z,10.90
2023-02-02T06:32:17.069Z,7.80
2023-02-02T06:35:19.838Z,7.43
2023-02-02T06:38:22.417Z,8.50
2023-02-02T06:41:25.643Z,8.27
2023-02-02T06:44:28.074Z,12.30
2023-02-02T06:47:32.863Z,12.18
2023-02-02T06:50:35.415Z,11.05
2023-02-02T06:53:37.887Z,5.82
2023-02-02T06:56:40.503Z,9.40
2023-02-02T06:59:43.074Z,8.30
2023-02-02T07:02:47.064Z,11.15
2023-02-02T07:05:49.725Z,35.33
2023-02-02T07:09:02.520Z,45.28
2023-02-02T07:12:06.231Z,33.67
2023-02-02T07:15:09.249Z,22.00
2023-02-02T07:18:11.734Z,24.20
2023-02-02T07:21:22.437Z,19.90
2023-02-02T07:24:25.136Z,17.05
2023-02-02T07:27:27.652Z,42.90
2023-02-02T07:30:30.189Z,35.45
2023-02-02T07:33:32.573Z,42.58
2023-02-02T07:36:35.220Z,42.33
2023-02-02T07:39:37.704Z,42.72
2023-02-02T07:42:40.398Z,37.70
2023-02-02T07:45:43.326Z,33.58
2023-02-02T07:48:45.953Z,27.52
2023-02-02T07:51:49.382Z,24.35
2023-02-02T07:54:57.673Z,16.42
2023-02-02T07:58:04.994Z,16.00
2023-02-02T08:01:09.516Z,10.20
2023-02-02T08:04:12.362Z,5.90
2023-02-02T08:07:15.168Z,2.60
2023-02-02T08:10:17.817Z,2.35
2023-02-02T08:13:20.968Z,1.60
2023-02-02T08:16:24.199Z,1.50
2023-02-02T08:19:27.017Z,2.53
2023-02-02T08:22:29.516Z,1.88
2023-02-02T08:25:31.912Z,6.53
2023-02-02T08:28:36.399Z,1.97
2023-02-02T08:31:43.019Z,1.42
2023-02-02T08:34:48.736Z,1.73
2023-02-02T08:37:51.180Z,0.93
2023-02-02T08:40:53.679Z,1.00
2023-02-02T08:43:56.162Z,1.43
2023-02-02T08:46:58.857Z,3.28
2023-02-02T08:50:01.469Z,4.95
2023-02-02T08:53:04.510Z,6.45
2023-02-02T08:56:13.394Z,2.75
2023-02-02T08:59:16.157Z,3.17
2023-02-02T09:02:19.084Z,6.40
2023-02-02T09:05:21.614Z,2.17
2023-02-02T09:08:24.155Z,3.40
2023-02-02T09:11:27.000Z,2.70
2023-02-02T09:14:29.862Z,3.30
2023-02-02T09:17:32.326Z,7.95
2023-02-02T09:20:35.070Z,5.20
2023-02-02T09:23:39.812Z,2.30
2023-02-02T09:26:43.386Z,1.52
2023-02-02T09:29:45.941Z,1.70
2023-02-02T09:32:51.319Z,1.45
2023-02-02T09:35:53.756Z,1.20
2023-02-02T09:38:56.544Z,0.52
2023-02-02T09:42:13.745Z,1.95
2023-02-02T09:45:26.722Z,2.20
2023-02-02T09:48:38.911Z,1.30
2023-02-02T09:51:46.596Z,2.33
2023-02-02T09:54:50.809Z,0.20
2023-02-02T09:57:56.118Z,0.43
2023-02-02T10:01:18.461Z,0.80
2023-02-02T10:04:27.999Z,0.20
2023-02-02T10:07:37.824Z,0.60
2023-02-02T10:10:43.444Z,0.32
2023-02-02T10:13:46.203Z,0.32
2023-02-02T10:16:49.682Z,0.10
2023-02-02T10:19:55.752Z,0.17
2023-02-02T10:23:03.217Z,0.43
2023-02-02T10:26:21.671Z,0.47
2023-02-02T10:29:47.999Z,0.50
2023-02-02T10:33:26.013Z,1.63
2023-02-02T10:36:49.934Z,0.80
2023-02-02T10:40:22.843Z,0.55
2023-02-02T10:43:51.774Z,0.68
2023-02-02T10:46:56.505Z,0.85
2023-02-02T10:50:15.211Z,0.50
2023-02-02T10:53:17.714Z,0.32
2023-02-02T10:56:35.450Z,0.00
2023-02-02T10:59:57.402Z,0.60
2023-02-02T11:03:04.529Z,0.20
2023-02-02T11:06:26.522Z,2.10
2023-02-02T11:09:37.282Z,1.33
2023-02-02T11:12:46.792Z,0.43
2023-02-02T11:15:49.377Z,0.80
2023-02-02T11:18:51.914Z,0.75
2023-02-02T11:21:59.170Z,0.00
2023-02-02T11:25:04.615Z,1.38
2023-02-02T11:28:18.789Z,0.77
2023-02-02T11:31:35.441Z,3.15
2023-02-02T11:34:37.988Z,1.73
2023-02-02T11:37:57.928Z,1.57
2023-02-02T11:41:09.230Z,1.52
2023-02-02T11:44:25.750Z,1.25
2023-02-02T11:47:30.540Z,0.47
2023-02-02T11:50:33.760Z,0.88
2023-02-02T11:53:47.172Z,1.20
2023-02-02T11:56:52.150Z,2.30
2023-02-02T12:00:16.043Z,2.85
2023-02-02T12:03:44.782Z,2.05
2023-02-02T12:06:47.274Z,0.32
2023-02-02T12:09:50.455Z,1.80
2023-02-02T12:12:59.844Z,1.38
2023-02-02T12:16:02.318Z,2.45
2023-02-02T12:19:30.133Z,4.00
2023-02-02T12:22:44.722Z,3.40
2023-02-02T12:25:59.348Z,2.03
2023-02-02T12:29:17.426Z,1.17
2023-02-02T12:32:25.824Z,1.65
2023-02-02T12:35:41.479Z,3.08
2023-02-02T12:39:14.885Z,2.83
2023-02-02T12:42:25.285Z,2.70
2023-02-02T12:45:33.911Z,2.20
2023-02-02T12:49:00.748Z,1.58
2023-02-02T12:52:16.265Z,1.60
2023-02-02T12:55:42.998Z,1.70
2023-02-02T12:58:56.284Z,0.73
2023-02-02T13:02:40.696Z,1.83
2023-02-02T13:05:55.328Z,1.42
2023-02-02T13:09:20.539Z,1.23
2023-02-02T13:12:24.022Z,1.20
2023-02-02T13:15:36.341Z,1.47
2023-02-02T13:18:51.986Z,1.60
2023-02-02T13:21:56.605Z,1.55
2023-02-02T13:25:01.319Z,1.90
2023-02-02T13:28:06.846Z,1.00
2023-02-02T13:31:18.137Z,2.07
2023-02-02T13:34:24.022Z,1.15
2023-02-02T13:37:54.291Z,0.70
2023-02-02T13:40:59.818Z,0.98
2023-02-02T13:44:02.381Z,1.85
2023-02-02T13:47:10.284Z,2.70
2023-02-02T13:50:16.920Z,3.10
2023-02-02T13:53:42.159Z,5.32
2023-02-02T13:57:04.801Z,2.25
2023-02-02T14:00:24.915Z,2.35
2023-02-02T14:03:38.904Z,1.40
2023-02-02T14:06:59.362Z,0.95
2023-02-02T14:10:01.826Z,1.50
2023-02-02T14:13:36.282Z,1.30
2023-02-02T14:16:38.573Z,2.13
2023-02-02T14:19:43.735Z,2.40
2023-02-02T14:22:48.416Z,2.35
2023-02-02T14:26:05.302Z,2.25
2023-02-02T14:29:31.295Z,3.38
2023-02-02T14:32:42.316Z,2.00
2023-02-02T14:35:44.659Z,1.43
2023-02-02T14:38:56.441Z,3.50
2023-02-02T14:42:36.823Z,2.60
2023-02-02T14:45:43.433Z,4.05
2023-02-02T14:48:57.156Z,4.28
2023-02-02T14:52:01.497Z,3.30
2023-02-02T14:55:04.343Z,3.33
2023-02-02T14:58:07.268Z,5.18
2023-02-02T15:01:32.692Z,2.00
2023-02-02T15:04:35.352Z,5.63
2023-02-02T15:07:52.070Z,7.13
2023-02-02T15:11:23.786Z,5.35
2023-02-02T15:14:30.717Z,4.65
2023-02-02T15:17:39.030Z,5.75
2023-02-02T15:20:49.887Z,2.42
2023-02-02T15:23:52.364Z,2.00
2023-02-02T15:26:55.793Z,2.60
2023-02-02T15:30:03.810Z,4.03
2023-02-02T15:33:23.786Z,1.23
2023-02-02T15:36:29.239Z,3.65
2023-02-02T15:39:35.057Z,2.43
2023-02-02T15:42:55.185Z,4.10
2023-02-02T15:46:10.487Z,9.65
2023-02-02T15:49:33.193Z,9.60
2023-02-02T15:52:46.629Z,8.93
2023-02-02T15:55:49.562Z,13.47
2023-02-02T15:58:54.952Z,8.80
2023-02-02T16:02:06.673Z,8.77
2023-02-02T16:05:31.169Z,10.20
2023-02-02T16:08:36.312Z,7.90
2023-02-02T16:11:42.287Z,8.13
2023-02-02T16:14:49.753Z,8.00
2023-02-02T16:18:03.546Z,8.50
2023-02-02T16:21:11.452Z,9.23
2023-02-02T16:24:29.682Z,10.88
2023-02-02T16:27:32.807Z,11.20
2023-02-02T16:30:38.028Z,12.68
2023-02-02T16:33:46.545Z,18.23
2023-02-02T16:37:28.130Z,19.67
2023-02-02T16:40:30.793Z,24.00
2023-02-02T16:43:34.394Z,20.83
2023-02-02T16:46:48.420Z,16.60
2023-02-02T16:50:10.104Z,15.35
2023-02-02T16:53:21.743Z,25.13
2023-02-02T16:56:27.895Z,27.17
2023-02-02T16:59:33.597Z,24.23
2023-02-02T17:02:39.166Z,26.50
2023-02-02T17:05:51.952Z,30.08
2023-02-02T17:08:56.408Z,21.90
2023-02-02T17:12:32.128Z,22.42
2023-02-02T17:15:36.822Z,17.50
2023-02-02T17:18:39.741Z,16.88
2023-02-02T17:21:42.419Z,18.42
2023-02-02T17:24:47.528Z,14.68
2023-02-02T17:27:50.056Z,12.55
2023-02-02T17:31:13.595Z,13.33
2023-02-02T17:34:16.120Z,12.27
2023-02-02T17:37:18.509Z,9.88
2023-02-02T17:40:22.595Z,8.95
2023-02-02T17:43:27.037Z,11.27
2023-02-02T17:46:31.098Z,7.90
2023-02-02T17:49:33.835Z,6.13
2023-02-02T17:52:39.538Z,4.00
2023-02-02T17:55:43.229Z,3.58
2023-02-02T17:58:45.881Z,4.93
2023-02-02T18:01:48.738Z,3.63
2023-02-02T18:04:51.518Z,2.95
2023-02-02T18:07:54.931Z,2.67
2023-02-02T18:10:59.529Z,2.83
2023-02-02T18:14:02.705Z,2.40
2023-02-02T18:17:05.124Z,6.33
2023-02-02T18:20:08.245Z,3.22
2023-02-02T18:23:11.422Z,2.20
2023-02-02T18:26:19.707Z,3.45
2023-02-02T18:29:22.622Z,3.05
2023-02-02T18:32:25.394Z,3.07
2023-02-02T18:35:28.418Z,1.40
2023-02-02T18:38:31.040Z,1.83
2023-02-02T18:41:33.897Z,1.50
2023-02-02T18:44:38.434Z,1.13
2023-02-02T18:47:41.644Z,1.00
2023-02-02T18:50:44.324Z,2.10
2023-02-02T18:53:47.471Z,1.17
2023-02-02T18:56:50.160Z,2.50
2023-02-02T18:59:53.017Z,0.93
2023-02-02T19:02:55.545Z,1.23
2023-02-02T19:06:16.231Z,1.65
2023-02-02T19:09:18.736Z,2.72
2023-02-02T19:12:26.814Z,3.80
2023-02-02T19:15:33.123Z,4.75
2023-02-02T19:18:35.667Z,14.40
2023-02-02T19:21:41.426Z,42.20
2023-02-02T19:24:44.072Z,17.98
2023-02-02T19:27:46.580Z,5.40
2023-02-02T19:30:50.758Z,5.88
2023-02-02T19:33:53.813Z,27.43
2023-02-02T19:36:56.487Z,22.02
2023-02-02T19:40:13.638Z,12.50
2023-02-02T19:43:24.569Z,5.68
2023-02-02T19:46:29.292Z,5.35
2023-02-02T19:49:35.080Z,3.73
2023-02-02T19:52:37.759Z,10.55
2023-02-02T19:55:40.652Z,15.43
2023-02-02T19:58:43.367Z,8.65
2023-02-02T20:01:47.887Z,5.05
2023-02-02T20:05:02.689Z,7.67
2023-02-02T20:08:26.615Z,5.78
2023-02-02T20:11:41.021Z,6.65
2023-02-02T20:14:43.851Z,32.33
2023-02-02T20:17:46.555Z,33.67
2023-02-02T20:20:52.830Z,38.03
2023-02-02T20:23:55.684Z,28.63
2023-02-02T20:27:02.587Z,13.43
2023-02-02T20:30:30.927Z,13.45
2023-02-02T20:33:34.000Z,14.48
2023-02-02T20:36:41.078Z,10.33
2023-02-02T20:40:01.529Z,11.80
2023-02-02T20:43:04.678Z,12.40
2023-02-02T20:46:07.262Z,9.57
2023-02-02T20:49:10.033Z,10.50
2023-02-02T20:52:21.355Z,9.90
2023-02-02T20:55:24.055Z,15.00
2023-02-02T20:58:26.868Z,10.65
2023-02-02T21:01:31.311Z,4.03
2023-02-02T21:04:34.379Z,3.08
2023-02-02T21:07:37.171Z,2.00
2023-02-02T21:10:41.191Z,2.20
2023-02-02T21:13:43.590Z,5.50
2023-02-02T21:16:46.318Z,4.45
2023-02-02T21:19:49.061Z,2.28
2023-02-02T21:22:51.731Z,2.53
2023-02-02T21:25:54.408Z,3.63
2023-02-02T21:28:58.326Z,3.35
2023-02-02T21:32:02.768Z,3.00
2023-02-02T21:35:06.623Z,2.53
2023-02-02T21:38:14.491Z,2.80
2023-02-02T21:41:16.855Z,3.03
2023-02-02T21:44:21.471Z,2.55
2023-02-02T21:47:30.324Z,2.03
2023-02-02T21:50:36.089Z,3.83
2023-02-02T21:53:38.432Z,2.47
2023-02-02T21:56:42.109Z,3.00
2023-02-02T21:59:46.794Z,2.42
2023-02-02T22:02:51.090Z,13.23
2023-02-02T22:06:19.210Z,16.17
2023-02-02T22:09:26.972Z,6.30
2023-02-02T22:12:30.037Z,5.80
2023-02-02T22:15:34.541Z,4.43
2023-02-02T22:18:37.002Z,4.68
2023-02-02T22:21:39.411Z,5.03
2023-02-02T22:24:58.697Z,4.60
2023-02-02T22:28:23.089Z,4.60
2023-02-02T22:31:25.870Z,4.82
2023-02-02T22:34:28.631Z,5.32
2023-02-02T22:37:31.073Z,5.22
2023-02-02T22:40:33.531Z,5.07
2023-02-02T22:43:35.991Z,5.25
2023-02-02T22:46:38.515Z,3.85
2023-02-02T22:49:41.192Z,6.88
2023-02-02T22:52:43.893Z,7.22
2023-02-02T22:55:46.373Z,8.57
2023-02-02T22:58:48.824Z,8.77
2023-02-02T23:01:51.251Z,7.80
2023-02-02T23:04:53.767Z,9.00
2023-02-02T23:07:56.320Z,11.50
2023-02-02T23:10:59.062Z,11.20
2023-02-02T23:14:01.436Z,11.45
2023-02-02T23:17:03.943Z,12.43
2023-02-02T23:20:09.245Z,10.55
2023-02-02T23:23:11.691Z,5.55
2023-02-02T23:26:14.136Z,3.60
2023-02-02T23:29:16.673Z,4.40
2023-02-02T23:32:19.221Z,3.70
2023-02-02T23:35:21.620Z,2.70
2023-02-02T23:38:24.033Z,2.28
2023-02-02T23:41:26.610Z,2.13
2023-02-02T23:44:29.079Z,2.30
2023-02-02T23:47:33.885Z,2.10
2023-02-02T23:50:39.903Z,3.50
2023-02-02T23:53:42.778Z,2.08
2023-02-02T23:56:45.268Z,1.33
2023-02-02T23:59:47.902Z,1.73
